Aérodrome :
LOGIN :

S'inscrire | Disclaimer

   EN    FR    IT 

 










Légende :    VFR   VFR Marginal   IFR   IFR Intensif   IFR Très Intensif
Visi : 
Plafond : 
>= 8 km
>= 3000ft
5 à 8 km
1000 à 3000 ft
1500m à 5 km
500 à 1000 ft
800 à 1500m
200 à 500 ft
< 800m
< 200 ft
Symboles :   Orages  Brouillard  Fortes neiges  Fortes précipitations  Vent > 20 kt
SIGMETs :   Divers  Orages  Givrage  Turbulence  Onde Orograph.  Cendres Volcan.






- Altitude de l'aérodrome : 12 ft
- Code IATA : CQF


LFAC - Calais

DERNIER METAR :
  • 221430Z AUTO 02006KT 350V060 CAVOK 19/12 Q1012

METARs EXPIRÉS :
  • 221400Z AUTO 02007KT 350V050 CAVOK 19/12 Q1013
  • 221330Z AUTO 01007KT 340V040 CAVOK 18/13 Q1013
  • 221300Z AUTO 01007KT CAVOK 19/13 Q1013
  • 221230Z AUTO 02007KT CAVOK 19/12 Q1013
  • 221200Z AUTO 02007KT 350V050 CAVOK 19/13 Q1014

TAF N/A
ATIS : +33 3 21 00 11 14



MET'MAP, la Météo Aéronautique d'un coup d'oeil ! - Copyright ORBIFLY Décembre 2007 - Disclaimer

ORBIFLY MET'MAP TEAM :

Programmation & Développement : Alexandra Zaïnal
Sur une idée originale de : Baudouin d'Aumeries
Soutien technique & logistique : Manuel Goepfert
Assistance : Marc-Olivier Méhu

Contact : metmap@orbifly.com




SOURCES & CREDITS :

   NOAA